Time;durP1;ratioP1;P1;durP2;ratioP2;P2;SDS_P1;SDS_P2;PMS_P1;PMS_P2;Temp;Humidity;BMP_temperature;BMP_pressure;BME280_temperature;BME280_humidity;BME280_pressure;Samples;Min_cycle;Max_cycle;Signal;HPM_P1;HPM_P2
2021/10/19 00:00:43;;;;;;;;;;;14.50;94.30;;;;;;4359564;33;43474;-82
2021/10/19 00:03:11;;;;;;;;;;;14.50;94.30;;;;;;4371623;32;43068;-81
2021/10/19 00:05:46;;;;;;;;;;;14.50;94.30;;;;;;4361043;32;42647;-81
2021/10/19 00:08:16;;;;;;;;;;;14.50;94.30;;;;;;4374746;32;43940;-82
2021/10/19 00:10:49;;;;;;;;;;;14.50;94.30;;;;;;4374193;32;43474;-81
2021/10/19 00:13:16;;;;;;;;;;;14.50;94.30;;;;;;4374556;32;43200;-81
2021/10/19 00:15:45;;;;;;;;;;;14.50;94.40;;;;;;4360858;32;44255;-81
2021/10/19 00:18:15;;;;;;;;;;;14.50;94.40;;;;;;4360899;32;43779;-81
2021/10/19 00:20:47;;;;;;;;;;;14.50;94.50;;;;;;4360970;32;43290;-81
2021/10/19 00:23:14;;;;;;;;;;;14.50;94.50;;;;;;4361105;32;43179;-81
2021/10/19 00:25:41;;;;;;;;;;;14.50;94.60;;;;;;4363005;32;43071;-81
2021/10/19 00:28:08;;;;;;;;;;;14.50;94.70;;;;;;4363295;32;43898;-81
2021/10/19 00:30:35;;;;;;;;;;;14.50;94.70;;;;;;4376849;32;44285;-81
2021/10/19 00:33:05;;;;;;;;;;;14.50;94.90;;;;;;4377911;32;20042;-81
2021/10/19 00:35:36;;;;;;;;;;;14.50;94.90;;;;;;4377214;32;43564;-80
2021/10/19 00:38:06;;;;;;;;;;;14.40;94.90;;;;;;4377193;32;43018;-81
2021/10/19 00:40:35;;;;;;;;;;;14.50;95.00;;;;;;4377064;32;43271;-80
2021/10/19 00:43:04;;;;;;;;;;;14.50;95.10;;;;;;4376979;32;43111;-81
2021/10/19 00:45:31;;;;;;;;;;;14.50;95.10;;;;;;4376768;32;43258;-82
2021/10/19 00:47:58;;;;;;;;;;;14.40;95.10;;;;;;4363205;32;42658;-81
2021/10/19 00:50:28;;;;;;;;;;;14.40;95.10;;;;;;4376829;32;42785;-81
2021/10/19 00:52:56;;;;;;;;;;;14.50;95.20;;;;;;4363293;32;44895;-81
2021/10/19 00:55:29;;;;;;;;;;;14.50;95.20;;;;;;4376596;32;43928;-81
2021/10/19 00:57:56;;;;;;;;;;;14.50;95.20;;;;;;4376888;32;45179;-81
2021/10/19 01:00:23;;;;;;;;;;;14.50;95.20;;;;;;4376670;32;44230;-81
2021/10/19 01:02:50;;;;;;;;;;;14.50;95.20;;;;;;4376162;32;43344;-81
2021/10/19 01:05:20;;;;;;;;;;;14.50;95.30;;;;;;4376298;32;44034;-81
2021/10/19 01:07:49;;;;;;;;;;;14.50;95.30;;;;;;4363356;32;43868;-81
2021/10/19 01:10:19;;;;;;;;;;;14.50;95.30;;;;;;4376256;32;44386;-80
2021/10/19 01:12:48;;;;;;;;;;;14.50;95.40;;;;;;4376514;32;44206;-81
2021/10/19 01:15:18;;;;;;;;;;;14.50;95.40;;;;;;4376079;32;42438;-81
2021/10/19 01:17:49;;;;;;;;;;;14.50;95.50;;;;;;4376571;32;43859;-81
2021/10/19 01:20:24;;;;;;;;;;;14.50;95.50;;;;;;4376508;32;43478;-81
2021/10/19 01:22:55;;;;;;;;;;;14.50;95.50;;;;;;4376038;32;45490;-80
2021/10/19 01:25:26;;;;;;;;;;;14.50;95.60;;;;;;4363225;32;43751;-81
2021/10/19 01:27:57;;;;;;;;;;;14.50;95.70;;;;;;4362776;32;43311;-81
2021/10/19 01:30:25;;;;;;;;;;;14.50;95.70;;;;;;4376460;32;43468;-80
2021/10/19 01:33:00;;;;;;;;;;;14.50;95.70;;;;;;4362445;32;43631;-81
2021/10/19 01:35:40;;;;;;;;;;;14.50;95.80;;;;;;4376151;32;43883;-81
2021/10/19 01:38:13;;;;;;;;;;;14.50;95.80;;;;;;4376002;32;44035;-80
2021/10/19 01:40:40;;;;;;;;;;;14.50;95.90;;;;;;4375840;32;43223;-81
2021/10/19 01:43:10;;;;;;;;;;;14.50;95.90;;;;;;4362592;32;44354;-81
2021/10/19 01:45:37;;;;;;;;;;;14.50;96.00;;;;;;4362283;32;44127;-80
2021/10/19 01:48:07;;;;;;;;;;;14.50;96.00;;;;;;4375638;32;42918;-81
2021/10/19 01:50:37;;;;;;;;;;;14.40;96.00;;;;;;4362148;32;43989;-81
2021/10/19 01:53:10;;;;;;;;;;;14.40;96.10;;;;;;4375449;32;43882;-81
2021/10/19 01:55:39;;;;;;;;;;;14.40;96.20;;;;;;4362597;32;44245;-82
2021/10/19 01:58:08;;;;;;;;;;;14.50;96.40;;;;;;4375586;32;42641;-81
2021/10/19 02:00:37;;;;;;;;;;;14.40;96.40;;;;;;4375737;32;43588;-81
2021/10/19 02:03:13;;;;;;;;;;;14.50;96.30;;;;;;4375315;32;43048;-80
2021/10/19 02:05:43;;;;;;;;;;;14.40;96.50;;;;;;4376275;32;20011;-81
2021/10/19 02:08:15;;;;;;;;;;;14.50;96.60;;;;;;4361854;32;43758;-81
2021/10/19 02:10:42;;;;;;;;;;;14.50;96.50;;;;;;4376057;32;43997;-81
2021/10/19 02:13:10;;;;;;;;;;;14.40;96.60;;;;;;4375822;32;43937;-81
2021/10/19 02:15:38;;;;;;;;;;;14.40;96.50;;;;;;4361976;32;43318;-81
2021/10/19 02:18:06;;;;;;;;;;;14.50;96.90;;;;;;4375270;32;42836;-81
2021/10/19 02:20:39;;;;;;;;;;;14.40;96.80;;;;;;4362226;32;43895;-83
2021/10/19 02:23:08;;;;;;;;;;;14.40;96.90;;;;;;4362175;32;43048;-81
2021/10/19 02:25:41;;;;;;;;;;;14.40;97.00;;;;;;4362178;32;43185;-80
2021/10/19 02:28:16;;;;;;;;;;;14.40;97.00;;;;;;4362012;32;42571;-81
2021/10/19 02:30:48;;;;;;;;;;;14.40;97.00;;;;;;4362249;32;43474;-81
2021/10/19 02:33:16;;;;;;;;;;;14.50;97.10;;;;;;4375386;32;42602;-80
2021/10/19 02:35:46;;;;;;;;;;;14.50;97.20;;;;;;4362952;32;19993;-80
2021/10/19 02:38:16;;;;;;;;;;;14.50;97.30;;;;;;4362192;32;43180;-80
2021/10/19 02:40:46;;;;;;;;;;;14.50;97.30;;;;;;4375196;32;43188;-80
2021/10/19 02:43:16;;;;;;;;;;;14.50;97.50;;;;;;4375228;32;45786;-80
2021/10/19 02:45:45;;;;;;;;;;;14.50;97.70;;;;;;4375063;32;43011;-81
2021/10/19 02:48:15;;;;;;;;;;;14.50;97.80;;;;;;4361861;32;43907;-81
2021/10/19 02:50:44;;;;;;;;;;;14.50;97.60;;;;;;4374755;32;43770;-81
2021/10/19 02:53:14;;;;;;;;;;;14.50;97.90;;;;;;4361522;32;43205;-81
2021/10/19 02:55:41;;;;;;;;;;;14.50;97.70;;;;;;4374718;32;44034;-81
2021/10/19 02:58:11;;;;;;;;;;;14.50;97.80;;;;;;4375208;32;43463;-80
2021/10/19 03:00:44;;;;;;;;;;;14.50;97.80;;;;;;4375094;32;43270;-79
2021/10/19 03:03:11;;;;;;;;;;;14.50;98.00;;;;;;4361307;32;44750;-81
2021/10/19 03:05:41;;;;;;;;;;;14.50;98.00;;;;;;4375156;32;43931;-81
2021/10/19 03:08:11;;;;;;;;;;;14.50;98.10;;;;;;4374616;32;42866;-80
2021/10/19 03:10:41;;;;;;;;;;;14.50;98.20;;;;;;4374684;32;42569;-82
2021/10/19 03:13:10;;;;;;;;;;;14.50;98.20;;;;;;4375048;32;43759;-80
2021/10/19 03:15:40;;;;;;;;;;;14.50;98.20;;;;;;4374603;32;43506;-81
2021/10/19 03:18:13;;;;;;;;;;;14.50;98.20;;;;;;4361161;32;42918;-81
2021/10/19 03:20:45;;;;;;;;;;;14.60;98.20;;;;;;4361212;32;43051;-81
2021/10/19 03:23:18;;;;;;;;;;;14.60;98.20;;;;;;4361669;32;43473;-81
2021/10/19 03:25:51;;;;;;;;;;;14.60;98.20;;;;;;4361610;32;43200;-81
2021/10/19 03:28:20;;;;;;;;;;;14.60;98.30;;;;;;4361760;32;43564;-81
2021/10/19 03:30:50;;;;;;;;;;;14.60;98.40;;;;;;4361617;32;44203;-81
2021/10/19 03:33:18;;;;;;;;;;;14.60;98.30;;;;;;4361535;32;43586;-81
2021/10/19 03:35:45;;;;;;;;;;;14.60;98.40;;;;;;4374515;32;44107;-82
2021/10/19 03:38:14;;;;;;;;;;;14.60;98.50;;;;;;4361419;32;43918;-80
2021/10/19 03:40:44;;;;;;;;;;;14.60;98.50;;;;;;4361495;32;44087;-81
2021/10/19 03:43:16;;;;;;;;;;;14.60;98.50;;;;;;4360955;32;43302;-80
2021/10/19 03:45:46;;;;;;;;;;;14.70;98.50;;;;;;4361509;32;44235;-80
2021/10/19 03:48:15;;;;;;;;;;;14.60;98.50;;;;;;4374757;32;44024;-80
2021/10/19 03:50:42;;;;;;;;;;;14.70;98.50;;;;;;4374295;32;44194;-80
2021/10/19 03:53:13;;;;;;;;;;;14.70;98.50;;;;;;4374417;32;43473;-80
2021/10/19 03:55:40;;;;;;;;;;;14.70;98.50;;;;;;4374890;32;44455;-80
2021/10/19 03:58:07;;;;;;;;;;;14.70;98.60;;;;;;4374848;32;43933;-80
2021/10/19 04:00:40;;;;;;;;;;;14.70;99.00;;;;;;4362929;32;43942;-81
2021/10/19 04:03:13;;;;;;;;;;;14.70;98.80;;;;;;4363541;32;45723;-79
2021/10/19 04:05:42;;;;;;;;;;;14.70;98.90;;;;;;4377376;32;44959;-80
2021/10/19 04:08:12;;;;;;;;;;;14.70;98.80;;;;;;4364267;32;29260;-80
2021/10/19 04:10:42;;;;;;;;;;;14.70;98.90;;;;;;4363881;32;43553;-80
2021/10/19 04:13:12;;;;;;;;;;;14.70;98.80;;;;;;4377016;32;44030;-81
2021/10/19 04:15:41;;;;;;;;;;;14.70;98.90;;;;;;4376826;32;44100;-81
2021/10/19 04:18:14;;;;;;;;;;;14.70;98.90;;;;;;4363378;32;44556;-82
2021/10/19 04:20:41;;;;;;;;;;;14.70;99.00;;;;;;4377370;32;43025;-81
2021/10/19 04:23:14;;;;;;;;;;;14.70;99.00;;;;;;4363417;32;43534;-80
2021/10/19 04:25:44;;;;;;;;;;;14.70;99.00;;;;;;4377239;32;42571;-81
2021/10/19 04:28:16;;;;;;;;;;;14.70;99.00;;;;;;4363182;32;43890;-81
2021/10/19 04:30:46;;;;;;;;;;;14.70;99.00;;;;;;4363446;32;42745;-81
2021/10/19 04:33:13;;;;;;;;;;;14.80;99.00;;;;;;4376919;32;44981;-81
2021/10/19 04:35:46;;;;;;;;;;;14.80;98.90;;;;;;4376606;32;44282;-81
2021/10/19 04:38:13;;;;;;;;;;;14.80;99.10;;;;;;4363978;32;20823;-81
2021/10/19 04:40:43;;;;;;;;;;;14.80;99.00;;;;;;4376608;32;43466;-81
2021/10/19 04:43:16;;;;;;;;;;;14.80;99.10;;;;;;4376522;32;44125;-81
2021/10/19 04:45:45;;;;;;;;;;;14.80;99.00;;;;;;4377347;32;43229;-81
2021/10/19 04:48:14;;;;;;;;;;;14.80;99.10;;;;;;4376565;32;42662;-81
2021/10/19 04:50:41;;;;;;;;;;;14.80;99.10;;;;;;4363072;32;44179;-81
2021/10/19 04:53:08;;;;;;;;;;;14.80;99.20;;;;;;4376875;32;45555;-81
2021/10/19 04:55:41;;;;;;;;;;;14.80;99.20;;;;;;4376769;32;44199;-80
2021/10/19 04:58:08;;;;;;;;;;;14.80;99.20;;;;;;4363159;32;42578;-80
2021/10/19 05:00:41;;;;;;;;;;;14.90;99.30;;;;;;4376708;32;44907;-81
2021/10/19 05:03:11;;;;;;;;;;;14.90;99.30;;;;;;4376229;32;42744;-81
2021/10/19 05:05:38;;;;;;;;;;;14.90;99.20;;;;;;4363163;32;43949;-81
2021/10/19 05:08:05;;;;;;;;;;;14.90;99.20;;;;;;4376371;32;42671;-81
2021/10/19 05:10:35;;;;;;;;;;;14.90;99.10;;;;;;4376200;32;45169;-81
2021/10/19 05:13:05;;;;;;;;;;;14.90;99.30;;;;;;4362721;32;42674;-80
2021/10/19 05:15:32;;;;;;;;;;;14.90;99.20;;;;;;4362776;32;44077;-81
2021/10/19 05:18:04;;;;;;;;;;;14.90;99.30;;;;;;4363827;32;43947;-81
2021/10/19 05:20:36;;;;;;;;;;;14.90;99.20;;;;;;4362888;32;43369;-80
2021/10/19 05:23:06;;;;;;;;;;;15.00;99.30;;;;;;4376696;32;43396;-81
2021/10/19 05:25:34;;;;;;;;;;;15.00;99.30;;;;;;4362905;32;44916;-81
2021/10/19 05:28:04;;;;;;;;;;;15.00;99.30;;;;;;4376011;32;42452;-81
2021/10/19 05:30:31;;;;;;;;;;;15.00;99.40;;;;;;4376375;32;42167;-82
2021/10/19 05:32:58;;;;;;;;;;;15.00;99.30;;;;;;4362378;32;43376;-82
2021/10/19 05:35:32;;;;;;;;;;;15.00;99.30;;;;;;4362319;32;42328;-81
2021/10/19 05:38:07;;;;;;;;;;;15.00;99.50;;;;;;4376364;32;43080;-81
2021/10/19 05:40:37;;;;;;;;;;;15.00;99.50;;;;;;4363565;32;23283;-81
2021/10/19 05:43:04;;;;;;;;;;;15.00;99.50;;;;;;4362606;32;44269;-81
2021/10/19 05:45:40;;;;;;;;;;;15.00;99.50;;;;;;4375677;32;42526;-81
2021/10/19 05:48:10;;;;;;;;;;;15.00;99.60;;;;;;4376251;32;44855;-81
2021/10/19 05:50:40;;;;;;;;;;;15.00;99.60;;;;;;4375959;32;43268;-81
2021/10/19 05:53:07;;;;;;;;;;;15.10;99.50;;;;;;4362650;32;43852;-81
2021/10/19 05:55:34;;;;;;;;;;;15.10;99.50;;;;;;4375979;32;43437;-81
2021/10/19 05:58:02;;;;;;;;;;;15.10;99.60;;;;;;4375811;32;43497;-82
2021/10/19 06:00:51;;;;;;;;;;;15.10;99.60;;;;;;4364680;32;41478;-81
2021/10/19 06:03:18;;;;;;;;;;;15.10;99.60;;;;;;4362091;32;43123;-82
2021/10/19 06:05:51;;;;;;;;;;;15.10;99.80;;;;;;4375776;32;44308;-81
2021/10/19 06:08:18;;;;;;;;;;;15.10;99.80;;;;;;4362392;32;44568;-81
2021/10/19 06:10:48;;;;;;;;;;;15.10;99.70;;;;;;4376484;32;20015;-81
2021/10/19 06:13:18;;;;;;;;;;;15.10;99.80;;;;;;4375227;32;44974;-81
2021/10/19 06:15:52;;;;;;;;;;;15.10;99.70;;;;;;4375116;32;44756;-82
2021/10/19 06:18:20;;;;;;;;;;;15.10;99.70;;;;;;4375811;32;45767;-82
2021/10/19 06:20:49;;;;;;;;;;;15.10;99.70;;;;;;4375560;32;44981;-80
2021/10/19 06:23:20;;;;;;;;;;;15.10;99.80;;;;;;4374767;32;42969;-81
2021/10/19 06:25:50;;;;;;;;;;;15.20;99.90;;;;;;4361959;32;43767;-81
2021/10/19 06:28:20;;;;;;;;;;;15.20;99.80;;;;;;4375284;32;44266;-82
2021/10/19 06:30:56;;;;;;;;;;;15.20;99.90;;;;;;4375405;32;43925;-81
2021/10/19 06:33:25;;;;;;;;;;;15.10;99.80;;;;;;4375691;32;44062;-81
2021/10/19 06:35:55;;;;;;;;;;;15.20;99.90;;;;;;4374844;32;44175;-81
2021/10/19 06:38:25;;;;;;;;;;;15.20;99.90;;;;;;4375109;32;42767;-81
2021/10/19 06:40:52;;;;;;;;;;;15.10;99.90;;;;;;4376152;32;20062;-81
2021/10/19 06:43:22;;;;;;;;;;;15.20;99.90;;;;;;4374922;32;42656;-81
2021/10/19 06:45:53;;;;;;;;;;;15.20;99.90;;;;;;4374869;32;44235;-81
2021/10/19 06:48:22;;;;;;;;;;;15.20;99.90;;;;;;4375185;32;43062;-82
2021/10/19 06:50:50;;;;;;;;;;;15.20;99.90;;;;;;4374891;32;42695;-81
2021/10/19 06:53:20;;;;;;;;;;;15.20;99.90;;;;;;4361389;32;42753;-81
2021/10/19 06:55:51;;;;;;;;;;;15.20;99.90;;;;;;4361377;32;42720;-81
2021/10/19 06:58:18;;;;;;;;;;;15.20;99.90;;;;;;4361265;32;44745;-81
2021/10/19 07:00:45;;;;;;;;;;;15.20;99.90;;;;;;4361724;32;42706;-81
2021/10/19 07:03:12;;;;;;;;;;;15.20;99.90;;;;;;4358849;32;44082;-80
2021/10/19 07:05:41;;;;;;;;;;;15.20;99.90;;;;;;4358628;32;43751;-81
2021/10/19 07:08:09;;;;;;;;;;;15.20;99.90;;;;;;4360291;32;43508;-82
2021/10/19 07:10:44;;;;;;;;;;;15.20;99.90;;;;;;4359983;32;42336;-81
2021/10/19 07:13:23;;;;;;;;;;;15.20;99.90;;;;;;4359167;32;43167;-81
2021/10/19 07:15:53;;;;;;;;;;;15.20;99.90;;;;;;4359287;32;43304;-81
2021/10/19 07:18:24;;;;;;;;;;;15.20;99.90;;;;;;4359517;32;44609;-81
2021/10/19 07:20:57;;;;;;;;;;;15.30;99.90;;;;;;4360238;33;44277;-81
2021/10/19 07:23:27;;;;;;;;;;;15.30;99.90;;;;;;4358536;33;43475;-83
2021/10/19 07:25:54;;;;;;;;;;;15.30;99.90;;;;;;4360077;33;42772;-81
2021/10/19 07:28:27;;;;;;;;;;;15.30;99.90;;;;;;4359680;33;44276;-80
2021/10/19 07:30:54;;;;;;;;;;;15.30;99.90;;;;;;4359996;33;45702;-81
2021/10/19 07:33:33;;;;;;;;;;;15.30;99.90;;;;;;4358917;32;44499;-81
2021/10/19 07:36:05;;;;;;;;;;;15.30;99.90;;;;;;4361457;32;43426;-81
2021/10/19 07:38:40;;;;;;;;;;;15.30;99.90;;;;;;4362966;32;44529;-81
2021/10/19 07:41:13;;;;;;;;;;;15.30;99.90;;;;;;4361983;32;43968;-81
2021/10/19 07:43:43;;;;;;;;;;;15.30;99.90;;;;;;4361763;32;44065;-81
2021/10/19 07:46:10;;;;;;;;;;;15.30;99.90;;;;;;4361330;32;42702;-81
2021/10/19 07:48:37;;;;;;;;;;;15.40;99.90;;;;;;4362410;32;42604;-81
2021/10/19 07:51:04;;;;;;;;;;;15.30;99.90;;;;;;4361841;32;42890;-80
2021/10/19 07:53:32;;;;;;;;;;;15.40;99.90;;;;;;4362331;32;43482;-80
2021/10/19 07:56:06;;;;;;;;;;;15.40;99.90;;;;;;4361663;32;44329;-81
2021/10/19 07:58:33;;;;;;;;;;;15.40;99.90;;;;;;4361552;32;43422;-81
2021/10/19 08:01:03;;;;;;;;;;;15.40;99.90;;;;;;4362286;32;44176;-81
2021/10/19 08:03:32;;;;;;;;;;;15.40;99.90;;;;;;4375829;32;43859;-81
2021/10/19 08:06:02;;;;;;;;;;;15.40;99.90;;;;;;4363515;32;43470;-81
2021/10/19 08:08:29;;;;;;;;;;;15.40;99.90;;;;;;4363236;32;43949;-81
2021/10/19 08:10:59;;;;;;;;;;;15.40;99.90;;;;;;4376259;32;43352;-81
2021/10/19 08:13:31;;;;;;;;;;;15.40;99.90;;;;;;4376051;32;44317;-81
2021/10/19 08:16:05;;;;;;;;;;;15.40;99.90;;;;;;4363096;32;42652;-82
2021/10/19 08:18:41;;;;;;;;;;;15.40;99.90;;;;;;4362664;32;42357;-81
2021/10/19 08:21:11;;;;;;;;;;;15.40;99.90;;;;;;4376585;32;44216;-81
2021/10/19 08:23:38;;;;;;;;;;;15.40;99.90;;;;;;4376433;32;43403;-81
2021/10/19 08:26:06;;;;;;;;;;;15.40;99.90;;;;;;4375960;32;43466;-80
2021/10/19 08:28:39;;;;;;;;;;;15.50;99.90;;;;;;4376397;32;44309;-82
2021/10/19 08:31:11;;;;;;;;;;;15.40;99.90;;;;;;4362957;32;43550;-81
2021/10/19 08:33:43;;;;;;;;;;;15.40;99.90;;;;;;4362607;32;42654;-79
2021/10/19 08:36:11;;;;;;;;;;;15.40;99.90;;;;;;4362773;32;44852;-80
2021/10/19 08:38:43;;;;;;;;;;;15.50;99.90;;;;;;4362886;32;42725;-81
2021/10/19 08:41:15;;;;;;;;;;;15.50;99.90;;;;;;4376112;32;45052;-81
2021/10/19 08:43:48;;;;;;;;;;;15.50;99.90;;;;;;4363384;32;20326;-81
2021/10/19 08:46:19;;;;;;;;;;;15.50;99.90;;;;;;4362780;32;43483;-81
2021/10/19 08:48:47;;;;;;;;;;;15.50;99.90;;;;;;4362358;32;43450;-81
2021/10/19 08:51:20;;;;;;;;;;;15.50;99.90;;;;;;4375553;32;44707;-81
2021/10/19 08:53:49;;;;;;;;;;;15.50;99.90;;;;;;4376001;32;43074;-81
2021/10/19 08:56:22;;;;;;;;;;;15.50;99.90;;;;;;4362678;32;43251;-83
2021/10/19 08:58:59;;;;;;;;;;;15.50;99.90;;;;;;4362334;32;42442;-81
2021/10/19 09:01:37;;;;;;;;;;;15.60;99.90;;;;;;4375413;32;42450;-80
2021/10/19 09:04:13;;;;;;;;;;;15.60;99.90;;;;;;4376302;32;44631;-82
2021/10/19 09:06:46;;;;;;;;;;;15.60;99.90;;;;;;4362813;32;44909;-81
2021/10/19 09:09:24;;;;;;;;;;;15.60;99.90;;;;;;4376469;32;43985;-81
2021/10/19 09:11:58;;;;;;;;;;;15.60;99.90;;;;;;4376528;32;44220;-81
2021/10/19 09:14:32;;;;;;;;;;;15.70;99.90;;;;;;4364187;32;19996;-82
2021/10/19 09:17:04;;;;;;;;;;;15.60;99.90;;;;;;4362674;32;43500;-81
2021/10/19 09:19:34;;;;;;;;;;;15.70;99.90;;;;;;4362936;32;43215;-82
2021/10/19 09:22:08;;;;;;;;;;;15.70;99.90;;;;;;4376015;32;44048;-81
2021/10/19 09:24:36;;;;;;;;;;;15.70;99.90;;;;;;4362613;32;43208;-82
2021/10/19 09:27:10;;;;;;;;;;;15.70;99.90;;;;;;4362651;32;44370;-83
2021/10/19 09:29:50;;;;;;;;;;;15.80;99.90;;;;;;4362526;32;44033;-81
2021/10/19 09:32:21;;;;;;;;;;;15.80;99.90;;;;;;4376199;32;43123;-81
2021/10/19 09:34:54;;;;;;;;;;;15.80;99.90;;;;;;4363043;32;43268;-81
2021/10/19 09:37:22;;;;;;;;;;;15.80;99.90;;;;;;4376352;32;44128;-81
2021/10/19 09:39:50;;;;;;;;;;;15.80;99.90;;;;;;4362786;32;43557;-81
2021/10/19 09:42:19;;;;;;;;;;;15.80;99.90;;;;;;4363000;32;43233;-81
2021/10/19 09:44:59;;;;;;;;;;;15.80;99.90;;;;;;4363695;32;20101;-81
2021/10/19 09:47:29;;;;;;;;;;;15.90;99.90;;;;;;4376229;32;44666;-81
2021/10/19 09:49:59;;;;;;;;;;;15.90;99.90;;;;;;4376267;32;43469;-82
2021/10/19 09:52:45;;;;;;;;;;;15.90;99.90;;;;;;4376145;32;44193;-81
2021/10/19 09:55:23;;;;;;;;;;;15.90;99.90;;;;;;4362247;32;43637;-81
2021/10/19 09:57:58;;;;;;;;;;;16.00;99.90;;;;;;4361800;32;42323;-81
2021/10/19 10:00:37;;;;;;;;;;;16.00;99.90;;;;;;4375581;32;44153;-81
2021/10/19 10:03:15;;;;;;;;;;;16.00;99.90;;;;;;4361966;32;45105;-82
2021/10/19 10:05:43;;;;;;;;;;;16.00;99.90;;;;;;4375926;32;45670;-81
2021/10/19 10:08:17;;;;;;;;;;;16.10;99.90;;;;;;4361959;32;43176;-81
2021/10/19 10:10:52;;;;;;;;;;;16.10;99.90;;;;;;4362326;32;44186;-83
2021/10/19 10:13:22;;;;;;;;;;;16.20;99.90;;;;;;4361818;32;44253;-81
2021/10/19 10:15:53;;;;;;;;;;;16.20;99.90;;;;;;4363310;32;20031;-81
2021/10/19 10:18:31;;;;;;;;;;;16.20;99.90;;;;;;4375421;32;43294;-81
2021/10/19 10:21:10;;;;;;;;;;;16.20;99.90;;;;;;4361792;32;44574;-82
2021/10/19 10:23:40;;;;;;;;;;;16.20;99.90;;;;;;4375342;32;43139;-81
2021/10/19 10:26:10;;;;;;;;;;;16.20;99.90;;;;;;4375622;32;44174;-81
2021/10/19 10:28:37;;;;;;;;;;;16.20;99.90;;;;;;4361937;32;43732;-82
2021/10/19 10:31:07;;;;;;;;;;;16.30;99.90;;;;;;4375200;32;43260;-82
2021/10/19 10:33:41;;;;;;;;;;;16.30;99.90;;;;;;4375633;32;44218;-82
2021/10/19 10:36:09;;;;;;;;;;;16.30;99.90;;;;;;4361818;32;45328;-84
2021/10/19 10:38:37;;;;;;;;;;;16.30;99.90;;;;;;4375559;32;44680;-81
2021/10/19 10:41:12;;;;;;;;;;;16.30;99.90;;;;;;4375133;32;44286;-82
2021/10/19 10:43:39;;;;;;;;;;;16.40;99.90;;;;;;4361876;32;42952;-82
2021/10/19 10:46:14;;;;;;;;;;;16.40;99.90;;;;;;4375261;32;44195;-82
2021/10/19 10:48:47;;;;;;;;;;;16.50;99.90;;;;;;4375172;32;45273;-82
2021/10/19 10:51:30;;;;;;;;;;;16.50;99.90;;;;;;4375375;32;43132;-82
2021/10/19 10:54:02;;;;;;;;;;;16.50;99.90;;;;;;4375371;32;43479;-81
2021/10/19 10:56:49;;;;;;;;;;;16.50;99.90;;;;;;4375203;32;42964;-81
2021/10/19 10:59:26;;;;;;;;;;;16.60;99.90;;;;;;4361619;32;44274;-82
2021/10/19 11:01:55;;;;;;;;;;;16.60;99.90;;;;;;4375010;32;43217;-81
2021/10/19 11:04:25;;;;;;;;;;;16.60;99.90;;;;;;4374685;32;43063;-81
2021/10/19 11:06:52;;;;;;;;;;;16.60;99.90;;;;;;4374602;32;43456;-81
2021/10/19 11:09:19;;;;;;;;;;;16.60;99.90;;;;;;4375034;32;43776;-83
2021/10/19 11:11:53;;;;;;;;;;;16.60;99.90;;;;;;4374663;32;44004;-82
2021/10/19 11:14:25;;;;;;;;;;;16.60;99.90;;;;;;4374759;32;44278;-81
2021/10/19 11:16:56;;;;;;;;;;;16.60;99.90;;;;;;4375539;32;19996;-81
2021/10/19 11:19:24;;;;;;;;;;;16.60;99.90;;;;;;4375061;32;45112;-82
2021/10/19 11:21:53;;;;;;;;;;;16.70;99.90;;;;;;4374516;32;42735;-82
2021/10/19 11:24:24;;;;;;;;;;;16.70;99.90;;;;;;4361559;32;43275;-81
2021/10/19 11:26:52;;;;;;;;;;;16.70;99.90;;;;;;4375204;32;43180;-81
2021/10/19 11:29:22;;;;;;;;;;;16.70;99.90;;;;;;4361571;32;44854;-82
2021/10/19 11:31:50;;;;;;;;;;;16.70;99.90;;;;;;4361095;32;43068;-82
2021/10/19 11:34:22;;;;;;;;;;;16.70;99.90;;;;;;4374567;32;43028;-82
2021/10/19 11:36:52;;;;;;;;;;;16.70;99.90;;;;;;4374390;32;42755;-82
2021/10/19 11:39:19;;;;;;;;;;;16.70;99.90;;;;;;4374476;32;43018;-83
2021/10/19 11:41:57;;;;;;;;;;;16.70;99.90;;;;;;4374582;32;43365;-81
2021/10/19 11:44:33;;;;;;;;;;;16.80;99.90;;;;;;4361409;32;44518;-82
2021/10/19 11:47:04;;;;;;;;;;;16.80;99.90;;;;;;4362634;32;19996;-81
2021/10/19 11:49:41;;;;;;;;;;;16.80;99.90;;;;;;4374344;32;42791;-81
2021/10/19 11:52:11;;;;;;;;;;;16.80;99.90;;;;;;4375032;32;43478;-82
2021/10/19 11:54:38;;;;;;;;;;;16.80;99.90;;;;;;4361263;32;42518;-81
2021/10/19 11:57:09;;;;;;;;;;;16.80;99.90;;;;;;4374467;32;44055;-82
2021/10/19 11:59:44;;;;;;;;;;;16.80;99.90;;;;;;4374756;32;42622;-81
2021/10/19 12:02:11;;;;;;;;;;;16.80;99.90;;;;;;4374521;32;43826;-81
2021/10/19 12:04:42;;;;;;;;;;;16.80;99.90;;;;;;4374393;32;43486;-82
2021/10/19 12:07:15;;;;;;;;;;;16.80;99.90;;;;;;4374840;32;43920;-82
2021/10/19 12:09:45;;;;;;;;;;;16.80;99.90;;;;;;4361153;32;43859;-82
2021/10/19 12:12:20;;;;;;;;;;;16.80;99.90;;;;;;4360759;32;43971;-82
2021/10/19 12:14:50;;;;;;;;;;;16.80;99.90;;;;;;4361371;32;44209;-82
2021/10/19 12:17:21;;;;;;;;;;;16.80;99.90;;;;;;4375195;32;20032;-82
2021/10/19 12:20:08;;;;;;;;;;;16.80;99.90;;;;;;4374805;32;43996;-82
2021/10/19 12:22:36;;;;;;;;;;;16.80;99.90;;;;;;4377057;32;42571;-81
2021/10/19 12:25:09;;;;;;;;;;;16.90;99.90;;;;;;4363873;32;43945;-81
2021/10/19 12:27:37;;;;;;;;;;;16.80;99.90;;;;;;4364107;32;43928;-82
2021/10/19 12:30:11;;;;;;;;;;;16.90;99.90;;;;;;4377014;32;44068;-81
2021/10/19 12:32:38;;;;;;;;;;;16.90;99.90;;;;;;4377217;32;44138;-82
2021/10/19 12:35:10;;;;;;;;;;;16.90;99.90;;;;;;4363599;32;44184;-82
2021/10/19 12:37:40;;;;;;;;;;;16.90;99.90;;;;;;4363648;32;43275;-82
2021/10/19 12:40:15;;;;;;;;;;;16.90;99.90;;;;;;4377099;32;44277;-82
2021/10/19 12:42:45;;;;;;;;;;;16.90;99.90;;;;;;4364150;32;44248;-83
2021/10/19 12:45:15;;;;;;;;;;;16.90;99.90;;;;;;4377100;32;43934;-82
2021/10/19 12:47:42;;;;;;;;;;;16.90;99.90;;;;;;4377992;32;20043;-82
2021/10/19 12:50:12;;;;;;;;;;;16.90;99.90;;;;;;4363082;32;44104;-82
2021/10/19 12:52:39;;;;;;;;;;;16.90;99.90;;;;;;4363181;32;43255;-82
2021/10/19 12:55:06;;;;;;;;;;;17.00;99.90;;;;;;4376641;32;43257;-81
2021/10/19 12:57:34;;;;;;;;;;;17.00;99.90;;;;;;4363122;32;42698;-82
2021/10/19 13:00:04;;;;;;;;;;;17.00;99.90;;;;;;4363340;32;43486;-81
2021/10/19 13:02:33;;;;;;;;;;;17.00;99.90;;;;;;4376185;32;43762;-81
2021/10/19 13:05:00;;;;;;;;;;;17.00;99.90;;;;;;4363110;32;43139;-82
2021/10/19 13:07:27;;;;;;;;;;;17.00;99.90;;;;;;4376481;32;43017;-82
2021/10/19 13:09:54;;;;;;;;;;;17.10;99.90;;;;;;4376512;32;44286;-82
2021/10/19 13:12:31;;;;;;;;;;;17.10;99.90;;;;;;4376219;32;43399;-81
2021/10/19 13:14:58;;;;;;;;;;;17.10;99.90;;;;;;4376252;32;43250;-81
2021/10/19 13:17:31;;;;;;;;;;;17.10;99.90;;;;;;4376554;32;44300;-82
2021/10/19 13:19:58;;;;;;;;;;;17.10;99.90;;;;;;4376119;32;42899;-82
2021/10/19 13:22:28;;;;;;;;;;;17.20;99.90;;;;;;4376271;32;43493;-83
2021/10/19 13:24:55;;;;;;;;;;;17.20;99.90;;;;;;4363196;32;44216;-82
2021/10/19 13:27:23;;;;;;;;;;;17.20;99.90;;;;;;4376022;32;42649;-83
2021/10/19 13:29:55;;;;;;;;;;;17.20;99.90;;;;;;4376569;32;43909;-82
2021/10/19 13:32:25;;;;;;;;;;;17.20;99.90;;;;;;4374990;32;43780;-82
2021/10/19 13:34:55;;;;;;;;;;;17.20;99.90;;;;;;4376367;32;43917;-82
2021/10/19 13:37:24;;;;;;;;;;;17.20;99.90;;;;;;4362750;32;43287;-83
2021/10/19 13:39:54;;;;;;;;;;;17.20;99.90;;;;;;4375824;32;43105;-82
2021/10/19 13:42:24;;;;;;;;;;;17.20;99.90;;;;;;4362758;32;43190;-82
2021/10/19 13:44:54;;;;;;;;;;;17.20;99.90;;;;;;4362683;32;44656;-81
2021/10/19 13:47:21;;;;;;;;;;;17.20;99.90;;;;;;4375682;32;42790;-83
2021/10/19 13:49:48;;;;;;;;;;;17.20;99.90;;;;;;4376206;32;44422;-82
2021/10/19 13:52:15;;;;;;;;;;;17.20;99.90;;;;;;4362687;32;42537;-83
2021/10/19 13:54:45;;;;;;;;;;;17.20;99.90;;;;;;4376034;32;43745;-83
2021/10/19 13:57:18;;;;;;;;;;;17.20;99.90;;;;;;4376042;32;43066;-82
2021/10/19 13:59:45;;;;;;;;;;;17.20;99.90;;;;;;4362565;32;43839;-81
2021/10/19 14:02:12;;;;;;;;;;;17.20;99.90;;;;;;4375330;32;43235;-83
2021/10/19 14:04:42;;;;;;;;;;;17.20;99.90;;;;;;4375756;32;44138;-82
2021/10/19 14:07:10;;;;;;;;;;;17.20;99.90;;;;;;4361926;32;45556;-83
2021/10/19 14:09:39;;;;;;;;;;;17.20;99.90;;;;;;4362680;32;42346;-83
2021/10/19 14:12:09;;;;;;;;;;;17.20;99.90;;;;;;4362209;32;43038;-83
2021/10/19 14:14:37;;;;;;;;;;;17.20;99.90;;;;;;4375862;32;45492;-83
2021/10/19 14:17:04;;;;;;;;;;;17.20;99.90;;;;;;4362320;32;43070;-82
2021/10/19 14:19:31;;;;;;;;;;;17.20;99.90;;;;;;4376593;32;20397;-82
2021/10/19 14:21:59;;;;;;;;;;;17.20;99.90;;;;;;4362094;32;44320;-81
2021/10/19 14:24:26;;;;;;;;;;;17.20;99.90;;;;;;4361789;32;43446;-82
2021/10/19 14:26:56;;;;;;;;;;;17.20;99.90;;;;;;4362580;32;43712;-82
2021/10/19 14:29:23;;;;;;;;;;;17.20;99.90;;;;;;4375726;32;43770;-82
2021/10/19 14:31:50;;;;;;;;;;;17.20;99.90;;;;;;4375321;32;45882;-82
2021/10/19 14:34:20;;;;;;;;;;;17.20;99.90;;;;;;4361766;32;42721;-83